createdAt,value
2023-06-06T00:01:58.074Z,20.08
2023-06-06T00:04:24.851Z,19.99
2023-06-06T00:06:54.314Z,19.72
2023-06-06T00:09:21.237Z,18.68
2023-06-06T00:11:50.101Z,18.41
2023-06-06T00:14:20.350Z,18.53
2023-06-06T00:16:49.959Z,18.44
2023-06-06T00:19:17.491Z,18.99
2023-06-06T00:21:44.125Z,19.45
2023-06-06T00:24:12.665Z,19.37
2023-06-06T00:26:39.706Z,19.28
2023-06-06T00:29:06.722Z,19.49
2023-06-06T00:31:33.634Z,19.42
2023-06-06T00:34:00.461Z,18.72
2023-06-06T00:36:27.432Z,19.12
2023-06-06T00:38:54.141Z,19.16
2023-06-06T00:41:22.122Z,19.25
2023-06-06T00:43:48.939Z,18.93
2023-06-06T00:46:18.256Z,18.85
2023-06-06T00:48:45.427Z,18.44
2023-06-06T00:51:12.425Z,18.50
2023-06-06T00:53:39.452Z,19.03
2023-06-06T00:56:07.600Z,19.05
2023-06-06T00:58:37.746Z,19.09
2023-06-06T01:01:06.219Z,18.74
2023-06-06T01:03:34.210Z,18.81
2023-06-06T01:06:01.032Z,18.80
2023-06-06T01:08:27.791Z,18.26
2023-06-06T01:11:08.269Z,18.26
2023-06-06T01:13:49.592Z,18.10
2023-06-06T01:16:19.916Z,18.07
2023-06-06T01:18:49.303Z,17.97
2023-06-06T01:21:16.703Z,18.10
2023-06-06T01:23:45.171Z,18.22
2023-06-06T01:26:13.769Z,18.11
2023-06-06T01:28:40.716Z,18.11
2023-06-06T01:31:14.676Z,17.99
2023-06-06T01:33:47.319Z,17.81
2023-06-06T01:36:46.749Z,17.93
2023-06-06T01:39:18.744Z,17.92
2023-06-06T01:41:49.269Z,18.05
2023-06-06T01:44:17.157Z,17.99
2023-06-06T01:46:43.998Z,18.27
2023-06-06T01:49:11.781Z,18.25
2023-06-06T01:51:38.574Z,18.41
2023-06-06T01:54:05.449Z,18.26
2023-06-06T01:56:34.745Z,18.22
2023-06-06T01:59:02.272Z,18.17
2023-06-06T02:01:30.485Z,17.80
2023-06-06T02:03:57.468Z,17.30
2023-06-06T02:06:24.256Z,17.51
2023-06-06T02:08:51.180Z,18.05
2023-06-06T02:11:17.907Z,17.85
2023-06-06T02:13:44.705Z,18.17
2023-06-06T02:16:11.517Z,18.24
2023-06-06T02:18:38.297Z,18.13
2023-06-06T02:21:05.113Z,18.17
2023-06-06T02:23:31.798Z,18.24
2023-06-06T02:25:58.426Z,18.56
2023-06-06T02:28:25.137Z,17.78
2023-06-06T02:30:52.779Z,17.43
2023-06-06T02:33:20.920Z,17.07
2023-06-06T02:35:47.825Z,17.56
2023-06-06T02:38:14.506Z,17.63
2023-06-06T02:40:41.396Z,17.98
2023-06-06T02:43:08.154Z,18.05
2023-06-06T02:45:35.656Z,18.17
2023-06-06T02:48:02.350Z,17.45
2023-06-06T02:50:29.679Z,16.96
2023-06-06T02:52:56.568Z,17.05
2023-06-06T02:55:23.268Z,17.28
2023-06-06T02:57:51.345Z,16.71
2023-06-06T03:00:18.836Z,17.06
2023-06-06T03:02:45.663Z,17.06
2023-06-06T03:05:13.392Z,17.34
2023-06-06T03:07:40.625Z,16.37
2023-06-06T03:10:08.677Z,16.42
2023-06-06T03:12:35.302Z,16.30
2023-06-06T03:15:02.278Z,16.52
2023-06-06T03:17:28.961Z,17.11
2023-06-06T03:19:55.647Z,17.55
2023-06-06T03:22:22.438Z,17.44
2023-06-06T03:24:51.705Z,17.66
2023-06-06T03:27:18.690Z,18.09
2023-06-06T03:29:45.444Z,17.84
2023-06-06T03:32:12.211Z,18.26
2023-06-06T03:34:40.818Z,18.00
2023-06-06T03:37:07.683Z,18.03
2023-06-06T03:39:34.999Z,18.04
2023-06-06T03:42:01.748Z,17.98
2023-06-06T03:44:28.498Z,18.08
2023-06-06T03:46:55.175Z,18.16
2023-06-06T03:49:21.864Z,18.31
2023-06-06T03:51:48.599Z,18.03
2023-06-06T03:54:15.361Z,17.80
2023-06-06T03:56:43.681Z,17.64
2023-06-06T03:59:14.611Z,17.74
2023-06-06T04:01:42.582Z,18.01
2023-06-06T04:04:09.876Z,17.95
2023-06-06T04:06:38.707Z,17.97
2023-06-06T04:09:08.487Z,17.97
2023-06-06T04:11:35.238Z,18.02
2023-06-06T04:14:02.278Z,17.86
2023-06-06T04:16:28.920Z,18.34
2023-06-06T04:18:55.621Z,18.08
2023-06-06T04:21:22.233Z,18.11
2023-06-06T04:23:48.991Z,18.16
2023-06-06T04:26:24.668Z,18.34
2023-06-06T04:28:54.619Z,18.34
2023-06-06T04:31:24.591Z,18.53
2023-06-06T04:33:57.479Z,18.27
2023-06-06T04:36:25.122Z,18.33
2023-06-06T04:38:52.774Z,18.54
2023-06-06T04:43:53.432Z,18.51
2023-06-06T04:46:23.274Z,18.63
2023-06-06T04:48:55.089Z,18.45
2023-06-06T04:51:30.732Z,18.64
2023-06-06T04:54:02.635Z,18.91
2023-06-06T04:56:30.293Z,18.54
2023-06-06T04:59:07.888Z,18.77
2023-06-06T05:01:39.015Z,19.27
2023-06-06T05:04:07.247Z,19.13
2023-06-06T05:06:37.741Z,19.13
2023-06-06T05:09:06.009Z,18.99
2023-06-06T05:11:33.150Z,18.97
2023-06-06T05:13:59.954Z,19.39
2023-06-06T05:16:27.373Z,19.09
2023-06-06T05:18:54.785Z,18.63
2023-06-06T05:21:21.739Z,19.09
2023-06-06T05:23:48.646Z,19.05
2023-06-06T05:26:15.865Z,19.24
2023-06-06T05:28:42.465Z,19.48
2023-06-06T05:31:09.381Z,19.39
2023-06-06T05:33:40.664Z,18.94
2023-06-06T05:36:07.464Z,19.33
2023-06-06T05:38:34.114Z,19.45
2023-06-06T05:41:00.844Z,19.75
2023-06-06T05:43:29.275Z,19.65
2023-06-06T05:45:55.980Z,19.97
2023-06-06T05:48:22.674Z,19.96
2023-06-06T05:50:49.765Z,19.98
2023-06-06T05:53:16.776Z,20.03
2023-06-06T05:55:44.137Z,19.65
2023-06-06T05:58:11.006Z,19.83
2023-06-06T06:00:37.937Z,20.39
2023-06-06T06:03:05.057Z,20.61
2023-06-06T06:05:32.524Z,20.58
2023-06-06T06:08:00.761Z,20.26
2023-06-06T06:10:32.888Z,20.21
2023-06-06T06:13:00.252Z,19.79
2023-06-06T06:15:29.264Z,19.94
2023-06-06T06:17:57.529Z,20.08
2023-06-06T06:20:24.297Z,20.21
2023-06-06T06:22:51.163Z,20.76
2023-06-06T06:25:17.990Z,19.64
2023-06-06T06:27:45.978Z,20.42
2023-06-06T06:30:13.665Z,20.58
2023-06-06T06:32:43.072Z,20.83
2023-06-06T06:35:10.323Z,20.85
2023-06-06T06:37:41.173Z,21.03
2023-06-06T06:40:12.477Z,20.39
2023-06-06T06:42:41.614Z,20.24
2023-06-06T06:45:10.220Z,21.25
2023-06-06T06:47:38.092Z,20.83
2023-06-06T06:50:05.866Z,21.14
2023-06-06T06:52:37.126Z,21.37
2023-06-06T06:55:06.272Z,21.85
2023-06-06T06:57:33.509Z,21.72
2023-06-06T07:00:02.278Z,22.09
2023-06-06T07:02:29.424Z,21.70
2023-06-06T07:05:00.482Z,21.40
2023-06-06T07:07:27.270Z,21.51
2023-06-06T07:09:54.086Z,21.66
2023-06-06T07:12:21.690Z,20.07
2023-06-06T07:14:48.373Z,20.92
2023-06-06T07:17:18.158Z,20.93
2023-06-06T07:19:44.992Z,21.76
2023-06-06T07:22:11.703Z,21.52
2023-06-06T07:24:38.463Z,22.16
2023-06-06T07:27:05.993Z,21.25
2023-06-06T07:29:32.698Z,21.75
2023-06-06T07:31:59.323Z,21.93
2023-06-06T07:34:26.547Z,21.84
2023-06-06T07:36:53.543Z,21.48
2023-06-06T07:39:20.228Z,21.43
2023-06-06T07:41:46.907Z,21.41
2023-06-06T07:44:17.291Z,22.16
2023-06-06T07:46:44.042Z,22.56
2023-06-06T07:49:10.904Z,23.12
2023-06-06T07:51:37.695Z,23.12
2023-06-06T07:54:04.592Z,22.07
2023-06-06T07:56:32.863Z,22.85
2023-06-06T07:59:00.418Z,22.22
2023-06-06T08:01:28.312Z,22.94
2023-06-06T08:03:55.764Z,23.25
2023-06-06T08:06:24.584Z,23.39
2023-06-06T08:08:52.657Z,21.32
2023-06-06T08:11:19.471Z,21.29
2023-06-06T08:13:46.274Z,21.90
2023-06-06T08:16:12.998Z,22.32
2023-06-06T08:18:39.806Z,22.95
2023-06-06T08:21:06.802Z,22.55
2023-06-06T08:23:35.078Z,22.85
2023-06-06T08:26:02.281Z,23.09
2023-06-06T08:28:29.687Z,23.54
2023-06-06T08:30:57.305Z,23.95
2023-06-06T08:33:24.156Z,23.72
2023-06-06T08:35:50.890Z,23.50
2023-06-06T08:38:17.540Z,23.83
2023-06-06T08:40:44.449Z,23.55
2023-06-06T08:43:13.172Z,22.83
2023-06-06T08:45:48.274Z,23.14
2023-06-06T08:48:17.403Z,22.60
2023-06-06T08:50:45.529Z,23.30
2023-06-06T08:53:15.610Z,22.96
2023-06-06T08:55:43.026Z,22.91
2023-06-06T08:58:11.897Z,23.71
2023-06-06T09:00:38.774Z,23.19
2023-06-06T09:03:07.994Z,23.33
2023-06-06T09:05:39.209Z,23.16
2023-06-06T09:08:07.846Z,23.36
2023-06-06T09:10:34.510Z,23.29
2023-06-06T09:13:02.283Z,23.11
2023-06-06T09:15:29.712Z,23.34
2023-06-06T09:17:56.581Z,23.83
2023-06-06T09:20:25.124Z,23.96
2023-06-06T09:22:51.904Z,23.99
2023-06-06T09:25:20.577Z,24.02
2023-06-06T09:27:48.234Z,22.87
2023-06-06T09:30:25.703Z,23.69
2023-06-06T09:33:02.652Z,24.19
2023-06-06T09:35:43.382Z,23.97
2023-06-06T09:38:16.832Z,24.51
2023-06-06T09:40:48.733Z,24.48
2023-06-06T09:43:19.288Z,24.54
2023-06-06T09:45:55.591Z,24.57
2023-06-06T09:48:27.124Z,23.91
2023-06-06T09:50:54.367Z,23.44
2023-06-06T09:53:28.467Z,23.91
2023-06-06T09:55:59.034Z,24.59
2023-06-06T09:58:27.994Z,24.26
2023-06-06T10:00:58.941Z,23.81
2023-06-06T10:03:26.303Z,24.51
2023-06-06T10:05:53.772Z,24.67
2023-06-06T10:08:25.309Z,24.88
2023-06-06T10:10:53.660Z,24.96
2023-06-06T10:13:23.914Z,25.11
2023-06-06T10:15:51.821Z,25.13
2023-06-06T10:18:19.830Z,23.82
2023-06-06T10:20:48.005Z,24.67
2023-06-06T10:23:15.323Z,24.78
2023-06-06T10:25:44.119Z,24.93
2023-06-06T10:28:33.325Z,24.92
2023-06-06T10:31:06.190Z,25.11
2023-06-06T10:33:46.262Z,24.96
2023-06-06T10:36:16.806Z,24.90
2023-06-06T10:39:22.102Z,25.38
2023-06-06T10:42:06.815Z,25.47
2023-06-06T10:44:54.183Z,24.82
2023-06-06T10:47:34.491Z,25.12
2023-06-06T10:50:22.672Z,24.80
2023-06-06T10:53:06.442Z,25.49
2023-06-06T10:55:33.958Z,25.01
2023-06-06T10:58:21.136Z,24.40
2023-06-06T11:00:51.015Z,25.27
2023-06-06T11:03:21.610Z,25.74
2023-06-06T11:06:13.182Z,25.22
2023-06-06T11:08:55.216Z,25.50
2023-06-06T11:11:28.263Z,25.22
2023-06-06T11:13:57.738Z,25.58
2023-06-06T11:16:49.556Z,24.84
2023-06-06T11:19:19.340Z,25.21
2023-06-06T11:21:51.348Z,25.21
2023-06-06T11:24:23.143Z,25.37
2023-06-06T11:26:53.185Z,24.77
2023-06-06T11:29:23.760Z,24.87
2023-06-06T11:31:50.511Z,24.89
2023-06-06T11:34:17.462Z,25.04
2023-06-06T11:36:46.026Z,25.71
2023-06-06T11:39:14.558Z,25.86
2023-06-06T11:41:42.872Z,25.56
2023-06-06T11:44:09.906Z,25.84
2023-06-06T11:46:46.748Z,25.10
2023-06-06T11:49:13.471Z,25.86
2023-06-06T11:51:40.151Z,25.65
2023-06-06T11:54:13.050Z,25.20
2023-06-06T11:56:40.997Z,25.01
2023-06-06T11:59:09.742Z,25.92
2023-06-06T12:01:36.868Z,26.01
2023-06-06T12:04:06.653Z,25.40
2023-06-06T12:06:34.708Z,26.00
2023-06-06T12:09:02.162Z,26.14
2023-06-06T12:11:33.174Z,26.01
2023-06-06T12:13:59.858Z,25.72
2023-06-06T12:16:29.584Z,26.02
2023-06-06T12:18:56.678Z,25.51
2023-06-06T12:21:24.007Z,24.88
2023-06-06T12:23:51.259Z,25.15
2023-06-06T12:26:18.133Z,25.38
2023-06-06T12:29:00.803Z,25.63
2023-06-06T12:31:31.662Z,25.36
2023-06-06T12:33:59.386Z,25.74
2023-06-06T12:36:27.680Z,25.48
2023-06-06T12:39:01.946Z,25.50
2023-06-06T12:41:42.329Z,25.52
2023-06-06T12:44:12.509Z,25.84
2023-06-06T12:46:43.531Z,24.85
2023-06-06T12:49:11.562Z,25.43
2023-06-06T12:51:41.868Z,24.96
2023-06-06T12:54:08.605Z,24.71
2023-06-06T12:56:35.292Z,24.90
2023-06-06T12:59:02.234Z,25.47
2023-06-06T13:01:30.165Z,25.55
2023-06-06T13:03:58.182Z,25.46
2023-06-06T13:06:24.952Z,25.65
2023-06-06T13:08:51.565Z,25.87
2023-06-06T13:11:19.048Z,25.72
2023-06-06T13:13:46.425Z,25.19
2023-06-06T13:16:13.309Z,24.96
2023-06-06T13:18:40.140Z,25.40
2023-06-06T13:21:07.001Z,25.50
2023-06-06T13:23:33.871Z,25.43
2023-06-06T13:26:00.599Z,25.24
2023-06-06T13:28:27.194Z,23.95
2023-06-06T13:30:54.660Z,24.43
2023-06-06T13:33:21.520Z,24.67
2023-06-06T13:35:49.867Z,24.09
2023-06-06T13:38:19.949Z,24.74
2023-06-06T13:40:47.414Z,24.13
2023-06-06T13:43:17.219Z,24.58
2023-06-06T13:45:44.397Z,24.19
2023-06-06T13:48:11.188Z,24.93
2023-06-06T13:50:38.172Z,25.04
2023-06-06T13:53:04.966Z,24.95
2023-06-06T13:55:32.782Z,25.42
2023-06-06T13:58:04.085Z,24.58
2023-06-06T14:00:32.470Z,24.46
2023-06-06T14:03:01.373Z,23.86
2023-06-06T14:05:29.461Z,24.18
2023-06-06T14:07:56.551Z,24.44
2023-06-06T14:10:23.249Z,24.61
2023-06-06T14:12:50.226Z,24.64
2023-06-06T14:15:17.731Z,24.77
2023-06-06T14:17:44.943Z,25.19
2023-06-06T14:20:14.314Z,25.12
2023-06-06T14:22:41.611Z,24.66
2023-06-06T14:25:09.288Z,24.95
2023-06-06T14:27:37.400Z,24.61
2023-06-06T14:30:06.572Z,24.66
2023-06-06T14:32:34.832Z,24.84
2023-06-06T14:35:05.052Z,24.48
2023-06-06T14:37:31.965Z,24.94
2023-06-06T14:40:00.070Z,24.86
2023-06-06T14:42:39.277Z,25.00
2023-06-06T14:45:37.005Z,24.86
2023-06-06T14:48:04.368Z,24.56
2023-06-06T14:50:31.447Z,24.64
2023-06-06T14:52:58.120Z,24.49
2023-06-06T14:55:24.815Z,24.77
2023-06-06T14:57:51.474Z,24.53
2023-06-06T15:00:18.324Z,24.51
2023-06-06T15:02:45.078Z,24.53
2023-06-06T15:05:11.920Z,23.59
2023-06-06T15:07:38.649Z,24.22
2023-06-06T15:10:05.704Z,24.23
2023-06-06T15:12:32.409Z,24.63
2023-06-06T15:14:59.084Z,24.18
2023-06-06T15:17:25.968Z,24.43
2023-06-06T15:19:52.697Z,23.54
2023-06-06T15:22:19.422Z,24.09
2023-06-06T15:24:46.319Z,23.49
2023-06-06T15:27:13.210Z,23.72
2023-06-06T15:29:43.479Z,24.20
2023-06-06T15:32:11.967Z,24.15
2023-06-06T15:34:39.244Z,22.99
2023-06-06T15:37:09.898Z,23.62
2023-06-06T15:39:36.658Z,23.95
2023-06-06T15:42:03.573Z,24.14
2023-06-06T15:44:32.575Z,23.94
2023-06-06T15:47:00.137Z,23.90
2023-06-06T15:49:26.806Z,23.84
2023-06-06T15:51:53.498Z,23.84
2023-06-06T15:54:20.233Z,24.08
2023-06-06T15:56:46.854Z,24.01
2023-06-06T15:59:13.607Z,24.24
2023-06-06T16:01:40.458Z,24.23
2023-06-06T16:04:07.221Z,23.92
2023-06-06T16:06:34.064Z,23.51
2023-06-06T16:09:02.300Z,23.06
2023-06-06T16:11:29.704Z,23.49
2023-06-06T16:13:56.606Z,23.49
2023-06-06T16:16:24.657Z,23.50
2023-06-06T16:18:51.594Z,23.75
2023-06-06T16:21:18.328Z,23.86
2023-06-06T16:26:12.221Z,23.44
2023-06-06T16:28:38.900Z,23.28
2023-06-06T16:31:05.558Z,23.89
2023-06-06T16:33:32.246Z,23.43
2023-06-06T16:36:00.554Z,23.29
2023-06-06T16:38:27.367Z,23.05
2023-06-06T16:40:54.094Z,22.92
2023-06-06T16:43:20.845Z,23.28
2023-06-06T16:45:47.681Z,23.37
2023-06-06T16:48:16.111Z,23.44
2023-06-06T16:50:43.131Z,24.20
2023-06-06T16:53:09.915Z,23.96
2023-06-06T16:55:36.653Z,24.13
2023-06-06T16:58:04.625Z,24.14
2023-06-06T17:00:31.438Z,23.35
2023-06-06T17:02:58.154Z,23.30
2023-06-06T17:05:24.892Z,23.02
2023-06-06T17:07:51.577Z,23.04
2023-06-06T17:10:18.225Z,23.36
2023-06-06T17:12:45.175Z,23.25
2023-06-06T17:15:12.037Z,23.14
2023-06-06T17:17:38.802Z,23.15
2023-06-06T17:20:06.104Z,23.07
2023-06-06T17:22:33.374Z,23.33
2023-06-06T17:25:00.869Z,23.05
2023-06-06T17:27:27.648Z,23.04
2023-06-06T17:29:54.500Z,23.13
2023-06-06T17:32:21.531Z,22.80
2023-06-06T17:34:48.232Z,22.78
2023-06-06T17:37:14.962Z,23.04
2023-06-06T17:39:41.767Z,22.72
2023-06-06T17:42:08.611Z,22.57
2023-06-06T17:44:35.351Z,22.63
2023-06-06T17:47:02.386Z,22.72
2023-06-06T17:49:29.861Z,22.57
2023-06-06T17:51:56.715Z,23.19
2023-06-06T17:54:23.887Z,23.39
2023-06-06T17:56:50.705Z,22.83
2023-06-06T17:59:17.452Z,22.70
2023-06-06T18:01:44.156Z,22.64
2023-06-06T18:04:12.853Z,22.61
2023-06-06T18:06:40.916Z,22.66
2023-06-06T18:09:13.471Z,22.15
2023-06-06T18:11:40.481Z,22.37
2023-06-06T18:14:07.354Z,22.75
2023-06-06T18:16:36.695Z,22.83
2023-06-06T18:19:03.340Z,22.34
2023-06-06T18:21:30.128Z,22.55
2023-06-06T18:23:59.785Z,22.22
2023-06-06T18:26:27.132Z,22.24
2023-06-06T18:28:53.798Z,22.47
2023-06-06T18:31:32.640Z,22.63
2023-06-06T18:34:04.054Z,22.33
2023-06-06T18:36:30.864Z,22.22
2023-06-06T18:38:58.927Z,22.33
2023-06-06T18:41:27.100Z,22.44
2023-06-06T18:43:53.749Z,22.11
2023-06-06T18:46:20.492Z,22.53
2023-06-06T18:48:47.491Z,22.23
2023-06-06T18:51:14.933Z,22.73
2023-06-06T18:53:41.623Z,22.58
2023-06-06T18:56:08.345Z,22.10
2023-06-06T18:58:35.106Z,22.16
2023-06-06T19:01:03.533Z,22.52
2023-06-06T19:03:30.602Z,22.60
2023-06-06T19:05:57.436Z,22.75
2023-06-06T19:08:24.205Z,22.42
2023-06-06T19:10:51.021Z,22.57
2023-06-06T19:13:17.770Z,22.33
2023-06-06T19:15:44.745Z,22.40
2023-06-06T19:18:23.135Z,22.65
2023-06-06T19:20:57.994Z,22.60
2023-06-06T19:23:25.397Z,22.25
2023-06-06T19:25:52.256Z,21.82
2023-06-06T19:28:19.131Z,22.01
2023-06-06T19:30:46.411Z,22.39
2023-06-06T19:33:17.797Z,22.18
2023-06-06T19:35:46.227Z,22.11
2023-06-06T19:38:13.406Z,22.20
2023-06-06T19:40:40.204Z,22.11
2023-06-06T19:43:07.004Z,22.30
2023-06-06T19:45:33.982Z,22.40
2023-06-06T19:48:00.950Z,22.35
2023-06-06T19:50:27.630Z,21.50
2023-06-06T19:52:56.404Z,21.90
2023-06-06T19:55:23.377Z,22.11
2023-06-06T19:57:50.070Z,22.33
2023-06-06T20:00:17.285Z,22.39
2023-06-06T20:02:44.029Z,22.36
2023-06-06T20:05:12.839Z,22.17
2023-06-06T20:07:40.760Z,22.24
2023-06-06T20:10:08.902Z,22.25
2023-06-06T20:12:36.126Z,22.52
2023-06-06T20:15:03.478Z,21.84
2023-06-06T20:17:30.327Z,21.95
2023-06-06T20:19:57.099Z,22.20
2023-06-06T20:22:28.058Z,22.29
2023-06-06T20:24:55.754Z,22.31
2023-06-06T20:27:22.562Z,21.82
2023-06-06T20:29:49.305Z,22.00
2023-06-06T20:32:16.015Z,22.02
2023-06-06T20:34:42.704Z,22.10
2023-06-06T20:37:09.527Z,22.03
2023-06-06T20:39:38.554Z,21.94
2023-06-06T20:42:06.813Z,21.03
2023-06-06T20:44:34.520Z,21.20
2023-06-06T20:47:03.276Z,21.68
2023-06-06T20:49:35.101Z,21.34
2023-06-06T20:52:05.377Z,21.50
2023-06-06T20:54:32.255Z,21.49
2023-06-06T20:56:58.959Z,21.38
2023-06-06T20:59:28.397Z,21.61
2023-06-06T21:01:55.377Z,21.60
2023-06-06T21:04:22.410Z,21.63
2023-06-06T21:06:49.071Z,21.17
2023-06-06T21:09:15.780Z,20.55
2023-06-06T21:11:44.191Z,20.76
2023-06-06T21:14:12.739Z,20.69
2023-06-06T21:16:40.961Z,21.10
2023-06-06T21:19:09.744Z,21.41
2023-06-06T21:21:37.301Z,21.46
2023-06-06T21:24:05.890Z,20.79
2023-06-06T21:26:32.734Z,21.01
2023-06-06T21:28:59.449Z,20.70
2023-06-06T21:31:26.200Z,21.01
2023-06-06T21:33:52.963Z,20.90
2023-06-06T21:36:19.643Z,20.78
2023-06-06T21:38:46.359Z,20.64
2023-06-06T21:41:13.022Z,20.71
2023-06-06T21:43:39.869Z,21.20
2023-06-06T21:46:06.675Z,21.42
2023-06-06T21:48:33.381Z,21.64
2023-06-06T21:51:00.202Z,21.55
2023-06-06T21:53:27.198Z,21.42
2023-06-06T21:55:54.010Z,21.53
2023-06-06T21:58:20.951Z,21.02
2023-06-06T22:00:47.682Z,21.00
2023-06-06T22:03:14.441Z,20.55
2023-06-06T22:05:41.101Z,20.83
2023-06-06T22:08:07.804Z,20.97
2023-06-06T22:10:34.576Z,21.07
2023-06-06T22:13:01.321Z,21.19
2023-06-06T22:15:28.013Z,21.23
2023-06-06T22:17:54.839Z,21.01
2023-06-06T22:20:21.553Z,21.02
2023-06-06T22:22:48.194Z,20.88
2023-06-06T22:25:15.089Z,20.53
2023-06-06T22:27:43.285Z,20.30
2023-06-06T22:30:11.190Z,20.16
2023-06-06T22:32:37.887Z,20.58
2023-06-06T22:35:04.935Z,20.73
2023-06-06T22:37:31.703Z,20.61
2023-06-06T22:39:58.340Z,20.82
2023-06-06T22:42:25.844Z,20.80
2023-06-06T22:44:52.697Z,20.81
2023-06-06T22:47:19.415Z,20.13
2023-06-06T22:49:47.750Z,20.34
2023-06-06T22:52:14.470Z,20.51
2023-06-06T22:54:41.176Z,20.47
2023-06-06T22:57:08.074Z,19.93
2023-06-06T22:59:34.822Z,20.13
2023-06-06T23:02:01.491Z,20.38
2023-06-06T23:04:28.233Z,20.43
2023-06-06T23:06:54.864Z,20.35
2023-06-06T23:09:21.533Z,20.36
2023-06-06T23:11:48.274Z,20.78
2023-06-06T23:14:15.028Z,20.96
2023-06-06T23:16:41.733Z,20.87
2023-06-06T23:19:09.457Z,20.89
2023-06-06T23:21:37.299Z,20.91
2023-06-06T23:24:05.262Z,20.96
2023-06-06T23:26:32.117Z,20.86
2023-06-06T23:28:58.953Z,20.29
2023-06-06T23:31:25.786Z,20.34
2023-06-06T23:33:52.534Z,20.64
2023-06-06T23:36:19.589Z,20.73
2023-06-06T23:38:46.435Z,20.68
2023-06-06T23:41:13.206Z,19.94
2023-06-06T23:43:39.920Z,19.88
2023-06-06T23:46:06.601Z,19.44
2023-06-06T23:48:33.263Z,19.67
2023-06-06T23:51:00.049Z,20.04
2023-06-06T23:53:26.814Z,20.14
2023-06-06T23:55:53.532Z,19.94
2023-06-06T23:58:20.222Z,20.11
